createdAt,value
2022-08-06T00:00:03.503Z,15.58
2022-08-06T00:02:25.859Z,15.58
2022-08-06T00:04:57.906Z,15.58
2022-08-06T00:07:28.125Z,15.57
2022-08-06T00:10:02.029Z,15.56
2022-08-06T00:12:33.540Z,15.56
2022-08-06T00:15:12.813Z,15.57
2022-08-06T00:17:42.490Z,15.55
2022-08-06T00:20:25.516Z,15.54
2022-08-06T00:22:59.552Z,15.50
2022-08-06T00:25:27.301Z,15.51
2022-08-06T00:27:57.373Z,15.52
2022-08-06T00:30:25.143Z,15.54
2022-08-06T00:32:53.289Z,15.55
2022-08-06T00:35:24.051Z,15.56
2022-08-06T00:37:59.119Z,15.57
2022-08-06T00:40:30.061Z,15.59
2022-08-06T00:43:06.095Z,15.63
2022-08-06T00:45:37.946Z,15.63
2022-08-06T00:48:31.414Z,15.65
2022-08-06T00:50:57.838Z,15.64
2022-08-06T00:53:34.460Z,15.64
2022-08-06T00:56:08.788Z,15.66
2022-08-06T00:58:41.348Z,15.68
2022-08-06T01:01:16.679Z,15.68
2022-08-06T01:03:52.043Z,15.68
2022-08-06T01:06:55.667Z,15.71
2022-08-06T01:09:08.681Z,15.73
2022-08-06T01:11:38.488Z,15.76
2022-08-06T01:14:09.997Z,15.77
2022-08-06T01:16:45.477Z,15.76
2022-08-06T01:21:21.899Z,15.77
2022-08-06T01:22:53.882Z,15.75
2022-08-06T01:25:47.161Z,15.77
2022-08-06T01:28:22.953Z,15.75
2022-08-06T01:31:03.233Z,15.76
2022-08-06T01:33:39.100Z,15.77
2022-08-06T01:36:11.918Z,15.77
2022-08-06T01:38:45.168Z,15.75
2022-08-06T01:41:58.380Z,15.76
2022-08-06T01:44:35.589Z,15.74
2022-08-06T01:47:16.227Z,15.73
2022-08-06T01:50:00.714Z,15.74
2022-08-06T01:52:34.801Z,15.73
2022-08-06T01:55:09.822Z,15.71
2022-08-06T01:58:19.255Z,15.69
2022-08-06T02:00:34.144Z,15.65
2022-08-06T02:03:05.432Z,15.62
2022-08-06T02:05:44.876Z,15.58
2022-08-06T02:08:38.025Z,15.55
2022-08-06T02:11:23.937Z,15.50
2022-08-06T02:14:01.018Z,15.46
2022-08-06T02:16:34.228Z,15.44
2022-08-06T02:19:10.364Z,15.39
2022-08-06T02:21:43.865Z,15.33
2022-08-06T02:24:19.767Z,15.29
2022-08-06T02:26:48.755Z,15.26
2022-08-06T02:29:21.105Z,15.24
2022-08-06T02:31:52.395Z,15.22
2022-08-06T02:34:26.896Z,15.21
2022-08-06T02:37:00.623Z,15.16
2022-08-06T02:39:47.674Z,15.13
2022-08-06T02:42:23.564Z,15.08
2022-08-06T02:45:01.749Z,15.07
2022-08-06T02:48:00.424Z,15.05
2022-08-06T02:50:29.879Z,15.03
2022-08-06T02:53:04.610Z,15.01
2022-08-06T02:55:40.470Z,14.99
2022-08-06T02:58:19.340Z,14.98
2022-08-06T03:00:59.961Z,14.99
2022-08-06T03:03:34.566Z,15.01
2022-08-06T03:06:06.864Z,15.00
2022-08-06T03:08:37.600Z,14.99
2022-08-06T03:11:07.683Z,14.97
2022-08-06T03:13:36.646Z,14.98
2022-08-06T03:16:23.437Z,14.98
2022-08-06T03:19:54.589Z,14.95
2022-08-06T03:21:55.902Z,14.92
2022-08-06T03:24:28.058Z,14.92
2022-08-06T03:26:59.518Z,14.93
2022-08-06T03:29:30.034Z,14.92
2022-08-06T03:32:13.421Z,14.93
2022-08-06T03:34:48.688Z,14.95
2022-08-06T03:37:21.839Z,14.98
2022-08-06T03:40:12.319Z,15.01
2022-08-06T03:42:43.936Z,15.02
2022-08-06T03:45:23.707Z,15.02
2022-08-06T03:48:07.834Z,15.01
2022-08-06T03:50:46.113Z,15.01
2022-08-06T03:53:20.942Z,15.00
2022-08-06T03:55:57.119Z,14.97
2022-08-06T03:58:28.479Z,14.94
2022-08-06T04:01:02.296Z,14.92
2022-08-06T04:03:39.356Z,14.90
2022-08-06T04:06:16.317Z,14.90
2022-08-06T04:08:48.657Z,14.90
2022-08-06T04:12:13.938Z,14.89
2022-08-06T04:14:08.979Z,14.83
2022-08-06T04:16:38.290Z,14.82
2022-08-06T04:19:09.342Z,14.83
2022-08-06T04:22:59.225Z,14.83
2022-08-06T04:24:32.379Z,14.82
2022-08-06T04:27:04.988Z,14.82
2022-08-06T04:29:57.285Z,14.83
2022-08-06T04:32:29.747Z,14.81
2022-08-06T04:36:05.603Z,14.82
2022-08-06T04:37:54.283Z,14.81
2022-08-06T04:40:34.879Z,14.83
2022-08-06T04:43:10.329Z,14.85
2022-08-06T04:46:17.060Z,14.88
2022-08-06T04:48:34.338Z,14.90
2022-08-06T04:51:10.232Z,14.94
2022-08-06T04:53:56.862Z,14.99
2022-08-06T04:56:29.574Z,15.00
2022-08-06T04:59:05.138Z,15.00
2022-08-06T05:01:53.130Z,15.01
2022-08-06T05:04:23.548Z,15.00
2022-08-06T05:06:58.202Z,15.01
2022-08-06T05:09:43.916Z,15.02
2022-08-06T05:12:22.899Z,15.02
2022-08-06T05:14:55.915Z,15.03
2022-08-06T05:17:29.683Z,15.05
2022-08-06T05:20:28.054Z,15.11
2022-08-06T05:23:03.693Z,15.14
2022-08-06T05:25:37.276Z,15.18
2022-08-06T05:28:11.320Z,15.21
2022-08-06T05:30:47.204Z,15.26
2022-08-06T05:33:26.491Z,15.31
2022-08-06T05:36:01.840Z,15.35
2022-08-06T05:38:35.961Z,15.42
2022-08-06T05:41:07.452Z,15.48
2022-08-06T05:44:00.222Z,15.55
2022-08-06T05:46:25.657Z,15.58
2022-08-06T05:49:02.285Z,15.64
2022-08-06T05:51:45.867Z,15.69
2022-08-06T05:54:21.726Z,15.75
2022-08-06T05:56:54.197Z,15.82
2022-08-06T05:59:38.411Z,15.92
2022-08-06T06:02:16.615Z,16.05
2022-08-06T06:05:00.690Z,16.17
2022-08-06T06:08:07.932Z,16.32
2022-08-06T06:10:26.980Z,16.44
2022-08-06T06:12:57.193Z,16.62
2022-08-06T06:15:59.030Z,16.77
2022-08-06T06:18:34.817Z,16.97
2022-08-06T06:21:17.453Z,17.12
2022-08-06T06:24:07.200Z,17.31
2022-08-06T06:26:41.929Z,17.43
2022-08-06T06:29:33.858Z,17.59
2022-08-06T06:32:30.601Z,17.75
2022-08-06T06:35:07.164Z,18.00
2022-08-06T06:37:41.922Z,18.36
2022-08-06T06:40:29.053Z,18.87
2022-08-06T06:43:03.111Z,19.34
2022-08-06T06:46:05.176Z,19.78
2022-08-06T06:48:37.021Z,20.56
2022-08-06T06:51:27.105Z,21.42
2022-08-06T06:54:09.003Z,22.36
2022-08-06T06:56:44.161Z,22.77
2022-08-06T06:59:17.292Z,22.73
2022-08-06T07:01:53.958Z,22.92
2022-08-06T07:04:26.819Z,23.48
2022-08-06T07:06:59.920Z,24.09
2022-08-06T07:09:40.904Z,24.78
2022-08-06T07:12:24.372Z,25.42
2022-08-06T07:15:01.151Z,25.99
2022-08-06T07:17:45.303Z,26.53
2022-08-06T07:20:26.115Z,27.09
2022-08-06T07:24:03.870Z,27.65
2022-08-06T07:25:54.511Z,28.15
2022-08-06T07:28:27.788Z,28.57
2022-08-06T07:31:04.146Z,28.94
2022-08-06T07:34:01.109Z,28.88
2022-08-06T07:36:29.386Z,28.59
2022-08-06T07:39:01.301Z,28.27
2022-08-06T07:42:06.936Z,27.84
2022-08-06T07:44:22.507Z,27.76
2022-08-06T07:47:01.245Z,28.12
2022-08-06T07:49:59.915Z,28.61
2022-08-06T07:52:29.707Z,29.02
2022-08-06T07:55:01.244Z,29.39
2022-08-06T07:57:32.812Z,29.78
2022-08-06T08:00:17.696Z,30.29
2022-08-06T08:03:07.264Z,30.75
2022-08-06T08:06:00.824Z,31.12
2022-08-06T08:08:31.508Z,31.48
2022-08-06T08:11:01.988Z,31.79
2022-08-06T08:13:41.560Z,31.90
2022-08-06T08:16:19.862Z,32.07
2022-08-06T08:18:48.572Z,32.41
2022-08-06T08:21:22.021Z,32.69
2022-08-06T08:23:55.539Z,32.94
2022-08-06T08:26:25.066Z,33.16
2022-08-06T08:28:53.497Z,33.32
2022-08-06T08:31:26.523Z,33.52
2022-08-06T08:33:54.920Z,33.71
2022-08-06T08:36:30.222Z,33.81
2022-08-06T08:39:00.087Z,34.01
2022-08-06T08:41:48.213Z,34.24
2022-08-06T08:44:26.637Z,34.36
2022-08-06T08:46:58.939Z,34.50
2022-08-06T08:49:34.744Z,34.59
2022-08-06T08:52:11.357Z,34.62
2022-08-06T08:54:43.293Z,34.64
2022-08-06T08:58:38.182Z,34.72
2022-08-06T09:00:02.437Z,34.65
2022-08-06T09:02:30.992Z,34.67
2022-08-06T09:04:59.913Z,34.79
2022-08-06T09:07:35.551Z,34.87
2022-08-06T09:10:06.376Z,34.96
2022-08-06T09:12:44.859Z,35.07
2022-08-06T09:15:14.487Z,34.94
2022-08-06T09:18:10.821Z,34.88
2022-08-06T09:20:36.402Z,34.95
2022-08-06T09:23:07.687Z,35.05
2022-08-06T09:25:49.804Z,35.17
2022-08-06T09:28:35.601Z,35.38
2022-08-06T09:31:10.664Z,35.43
2022-08-06T09:34:18.777Z,35.48
2022-08-06T09:36:49.273Z,35.56
2022-08-06T09:39:32.139Z,35.59
2022-08-06T09:42:38.879Z,35.56
2022-08-06T09:45:15.732Z,35.62
2022-08-06T09:47:47.363Z,35.68
2022-08-06T09:50:39.129Z,35.71
2022-08-06T09:53:14.617Z,35.66
2022-08-06T09:55:46.492Z,35.67
2022-08-06T09:58:14.413Z,35.56
2022-08-06T10:00:42.213Z,35.54
2022-08-06T10:04:03.396Z,35.48
2022-08-06T10:06:10.563Z,35.55
2022-08-06T10:08:39.592Z,35.58
2022-08-06T10:11:09.108Z,35.57
2022-08-06T10:13:43.888Z,35.49
2022-08-06T10:16:19.940Z,35.52
2022-08-06T10:18:54.793Z,35.58
2022-08-06T10:21:33.380Z,35.41
2022-08-06T10:24:11.403Z,35.20
2022-08-06T10:26:44.802Z,35.17
2022-08-06T10:29:14.607Z,35.16
2022-08-06T10:31:42.812Z,35.07
2022-08-06T10:34:12.543Z,34.99
2022-08-06T10:36:45.285Z,34.79
2022-08-06T10:40:06.769Z,34.66
2022-08-06T10:42:18.236Z,34.32
2022-08-06T10:44:51.462Z,33.99
2022-08-06T10:48:59.147Z,33.80
2022-08-06T10:50:25.621Z,33.80
2022-08-06T10:53:00.114Z,33.91
2022-08-06T10:55:37.670Z,34.10
2022-08-06T10:58:15.284Z,34.21
2022-08-06T11:00:56.038Z,34.23
2022-08-06T11:03:43.034Z,34.25
2022-08-06T11:06:27.797Z,34.24
2022-08-06T11:09:12.776Z,34.19
2022-08-06T11:12:06.122Z,34.18
2022-08-06T11:14:39.516Z,34.23
2022-08-06T11:17:11.529Z,34.41
2022-08-06T11:19:46.866Z,34.51
2022-08-06T11:22:36.166Z,34.48
2022-08-06T11:25:25.276Z,34.21
2022-08-06T11:27:59.190Z,34.20
2022-08-06T11:30:41.768Z,33.92
2022-08-06T11:33:16.617Z,33.59
2022-08-06T11:35:51.887Z,33.30
2022-08-06T11:38:58.273Z,33.20
2022-08-06T11:41:55.079Z,33.10
2022-08-06T11:44:18.679Z,33.26
2022-08-06T11:47:30.715Z,33.43
2022-08-06T11:50:07.183Z,33.49
2022-08-06T11:52:42.605Z,33.57
2022-08-06T11:55:23.074Z,33.57
2022-08-06T11:57:53.102Z,33.50
2022-08-06T12:00:23.561Z,33.47
2022-08-06T12:02:59.685Z,33.19
2022-08-06T12:05:57.110Z,33.14
2022-08-06T12:08:41.797Z,33.13
2022-08-06T12:11:37.261Z,33.05
2022-08-06T12:14:33.685Z,32.90
2022-08-06T12:16:58.629Z,32.91
2022-08-06T12:19:33.000Z,32.89
2022-08-06T12:22:01.449Z,32.50
2022-08-06T12:24:45.180Z,32.38
2022-08-06T12:27:24.298Z,32.41
2022-08-06T12:29:57.629Z,32.61
2022-08-06T12:32:29.197Z,32.74
2022-08-06T12:35:01.392Z,32.69
2022-08-06T12:37:41.253Z,32.68
2022-08-06T12:40:29.123Z,32.35
2022-08-06T12:43:15.373Z,32.38
2022-08-06T12:46:05.301Z,32.32
2022-08-06T12:48:32.846Z,32.40
2022-08-06T12:51:11.649Z,32.59
2022-08-06T12:53:47.929Z,32.63
2022-08-06T12:56:31.982Z,32.46
2022-08-06T12:59:04.289Z,32.36
2022-08-06T13:02:08.795Z,32.48
2022-08-06T13:04:30.325Z,32.52
2022-08-06T13:07:05.052Z,32.52
2022-08-06T13:09:56.254Z,32.32
2022-08-06T13:12:44.907Z,32.04
2022-08-06T13:15:18.417Z,31.62
2022-08-06T13:18:13.130Z,31.48
2022-08-06T13:20:57.155Z,31.38
2022-08-06T13:23:34.335Z,31.46
2022-08-06T13:26:15.967Z,31.32
2022-08-06T13:30:29.468Z,31.22
2022-08-06T13:32:11.321Z,31.23
2022-08-06T13:34:57.592Z,31.40
2022-08-06T13:37:54.252Z,31.47
2022-08-06T13:40:46.968Z,31.24
2022-08-06T13:43:40.222Z,31.07
2022-08-06T13:46:15.513Z,30.98
2022-08-06T13:48:49.687Z,31.02
2022-08-06T13:51:22.537Z,31.01
2022-08-06T13:53:57.888Z,30.97
2022-08-06T13:56:30.107Z,30.95
2022-08-06T13:59:00.610Z,30.88
2022-08-06T14:01:44.170Z,30.88
2022-08-06T14:04:15.290Z,30.84
2022-08-06T14:06:46.745Z,30.65
2022-08-06T14:09:19.520Z,30.37
2022-08-06T14:11:54.524Z,30.28
2022-08-06T14:14:25.283Z,30.11
2022-08-06T14:16:56.628Z,30.02
2022-08-06T14:20:14.270Z,29.89
2022-08-06T14:22:12.890Z,29.64
2022-08-06T14:24:40.737Z,29.54
2022-08-06T14:27:24.286Z,29.46
2022-08-06T14:30:26.792Z,29.50
2022-08-06T14:32:40.611Z,29.44
2022-08-06T14:35:09.263Z,29.42
2022-08-06T14:37:52.171Z,29.19
2022-08-06T14:41:00.868Z,28.73
2022-08-06T14:43:56.162Z,28.37
2022-08-06T14:46:29.652Z,28.36
2022-08-06T14:48:59.663Z,28.49
2022-08-06T14:51:37.710Z,28.59
2022-08-06T14:54:18.546Z,28.56
2022-08-06T14:56:52.699Z,28.49
2022-08-06T14:59:23.300Z,28.52
2022-08-06T15:01:52.704Z,28.43
2022-08-06T15:04:24.028Z,28.41
2022-08-06T15:06:57.476Z,28.34
2022-08-06T15:09:28.379Z,28.22
2022-08-06T15:12:34.493Z,28.16
2022-08-06T15:15:06.390Z,28.06
2022-08-06T15:18:03.745Z,28.04
2022-08-06T15:20:26.281Z,28.03
2022-08-06T15:22:56.042Z,28.04
2022-08-06T15:26:01.857Z,27.92
2022-08-06T15:28:12.656Z,27.89
2022-08-06T15:30:46.771Z,27.85
2022-08-06T15:33:15.377Z,27.85
2022-08-06T15:35:57.957Z,27.84
2022-08-06T15:38:27.362Z,27.66
2022-08-06T15:40:55.352Z,27.47
2022-08-06T15:43:24.984Z,27.28
2022-08-06T15:45:58.601Z,27.27
2022-08-06T15:48:28.876Z,27.20
2022-08-06T15:51:28.344Z,27.08
2022-08-06T15:53:54.448Z,26.98
2022-08-06T15:56:38.456Z,26.97
2022-08-06T15:59:12.328Z,27.00
2022-08-06T16:01:52.113Z,26.93
2022-08-06T16:04:23.279Z,26.87
2022-08-06T16:06:51.436Z,26.83
2022-08-06T16:09:27.104Z,26.73
2022-08-06T16:11:56.467Z,26.64
2022-08-06T16:14:32.921Z,26.61
2022-08-06T16:17:09.810Z,26.53
2022-08-06T16:19:49.269Z,26.41
2022-08-06T16:22:18.963Z,26.30
2022-08-06T16:24:48.750Z,26.26
2022-08-06T16:27:17.739Z,26.15
2022-08-06T16:29:49.307Z,25.99
2022-08-06T16:32:25.134Z,25.89
2022-08-06T16:34:59.128Z,25.81
2022-08-06T16:37:33.263Z,25.71
2022-08-06T16:40:09.107Z,25.61
2022-08-06T16:42:37.236Z,25.44
2022-08-06T16:45:11.617Z,25.30
2022-08-06T16:48:18.528Z,25.26
2022-08-06T16:50:37.047Z,25.17
2022-08-06T16:54:08.228Z,25.09
2022-08-06T16:55:55.330Z,24.99
2022-08-06T16:58:34.361Z,24.96
2022-08-06T17:02:13.310Z,24.85
2022-08-06T17:03:56.448Z,24.72
2022-08-06T17:06:29.666Z,24.65
2022-08-06T17:08:57.720Z,24.53
2022-08-06T17:11:46.277Z,24.37
2022-08-06T17:14:14.199Z,24.23
2022-08-06T17:16:45.062Z,24.14
2022-08-06T17:19:16.214Z,24.05
2022-08-06T17:21:58.966Z,23.95
2022-08-06T17:24:36.589Z,23.85
2022-08-06T17:27:08.694Z,23.74
2022-08-06T17:32:32.216Z,23.48
2022-08-06T17:37:54.496Z,23.18
2022-08-06T17:40:30.703Z,23.03
2022-08-06T17:43:04.701Z,22.99
2022-08-06T17:45:33.095Z,22.97
2022-08-06T17:48:03.202Z,22.89
2022-08-06T17:50:40.584Z,22.79
2022-08-06T17:53:19.028Z,22.63
2022-08-06T17:56:00.442Z,22.49
2022-08-06T17:58:38.051Z,22.41
2022-08-06T18:01:43.825Z,22.28
2022-08-06T18:04:21.288Z,22.17
2022-08-06T18:07:12.325Z,22.03
2022-08-06T18:10:17.012Z,21.90
2022-08-06T18:12:48.532Z,21.73
2022-08-06T18:15:17.508Z,21.60
2022-08-06T18:17:47.835Z,21.48
2022-08-06T18:20:38.699Z,21.38
2022-08-06T18:23:20.504Z,21.28
2022-08-06T18:25:56.960Z,21.18
2022-08-06T18:28:27.187Z,21.09
2022-08-06T18:31:04.645Z,21.01
2022-08-06T18:33:33.044Z,20.92
2022-08-06T18:36:01.197Z,20.82
2022-08-06T18:38:36.575Z,20.74
2022-08-06T18:41:15.066Z,20.66
2022-08-06T18:43:55.479Z,20.56
2022-08-06T18:47:00.864Z,20.46
2022-08-06T18:49:16.754Z,20.34
2022-08-06T18:51:48.627Z,20.24
2022-08-06T18:54:23.636Z,20.19
2022-08-06T18:56:53.148Z,20.10
2022-08-06T18:59:28.360Z,20.01
2022-08-06T19:01:58.470Z,19.92
2022-08-06T19:04:29.137Z,19.84
2022-08-06T19:07:00.070Z,19.77
2022-08-06T19:09:34.024Z,19.69
2022-08-06T19:12:12.077Z,19.60
2022-08-06T19:14:43.920Z,19.51
2022-08-06T19:17:14.939Z,19.40
2022-08-06T19:19:59.048Z,19.33
2022-08-06T19:22:31.539Z,19.23
2022-08-06T19:25:09.194Z,19.17
2022-08-06T19:28:07.317Z,19.06
2022-08-06T19:30:40.876Z,18.96
2022-08-06T19:33:16.177Z,18.85
2022-08-06T19:36:03.165Z,18.76
2022-08-06T19:38:33.331Z,18.65
2022-08-06T19:41:02.994Z,18.56
2022-08-06T19:44:27.237Z,18.47
2022-08-06T19:46:34.219Z,18.36
2022-08-06T19:49:03.480Z,18.28
2022-08-06T19:52:02.605Z,18.23
2022-08-06T19:54:25.858Z,18.14
2022-08-06T19:56:57.192Z,18.09
2022-08-06T20:00:52.028Z,18.04
2022-08-06T20:02:15.473Z,17.98
2022-08-06T20:04:44.171Z,17.90
2022-08-06T20:07:34.179Z,17.81
2022-08-06T20:10:03.446Z,17.71
2022-08-06T20:12:38.630Z,17.66
2022-08-06T20:15:08.721Z,17.57
2022-08-06T20:17:49.619Z,17.51
2022-08-06T20:20:29.128Z,17.43
2022-08-06T20:23:08.740Z,17.37
2022-08-06T20:26:10.529Z,17.31
2022-08-06T20:29:10.054Z,17.25
2022-08-06T20:31:22.573Z,17.18
2022-08-06T20:33:58.638Z,17.17
2022-08-06T20:36:29.623Z,17.13
2022-08-06T20:38:58.315Z,17.07
2022-08-06T20:42:03.477Z,17.02
2022-08-06T20:44:18.154Z,16.96
2022-08-06T20:47:45.482Z,16.92
2022-08-06T20:50:03.363Z,16.86
2022-08-06T20:52:24.345Z,16.79
2022-08-06T20:54:53.155Z,16.76
2022-08-06T20:57:26.652Z,16.74
2022-08-06T20:59:59.466Z,16.71
2022-08-06T21:02:31.748Z,16.67
2022-08-06T21:05:14.387Z,16.64
2022-08-06T21:07:50.980Z,16.60
2022-08-06T21:10:26.757Z,16.58
2022-08-06T21:13:01.622Z,16.56
2022-08-06T21:15:56.241Z,16.53
2022-08-06T21:18:21.199Z,16.48
2022-08-06T21:20:51.462Z,16.48
2022-08-06T21:23:21.290Z,16.46
2022-08-06T21:25:58.403Z,16.43
2022-08-06T21:28:27.351Z,16.41
2022-08-06T21:30:59.308Z,16.40
2022-08-06T21:33:27.683Z,16.38
2022-08-06T21:35:57.383Z,16.37
2022-08-06T21:38:26.295Z,16.35
2022-08-06T21:40:56.345Z,16.34
2022-08-06T21:43:29.280Z,16.33
2022-08-06T21:46:27.542Z,16.31
2022-08-06T21:48:56.829Z,16.31
2022-08-06T21:51:35.456Z,16.28
2022-08-06T21:54:04.649Z,16.27
2022-08-06T21:56:39.311Z,16.27
2022-08-06T21:59:12.616Z,16.25
2022-08-06T22:02:13.557Z,16.24
2022-08-06T22:04:37.775Z,16.18
2022-08-06T22:07:14.513Z,16.14
2022-08-06T22:09:45.238Z,16.11
2022-08-06T22:12:36.637Z,16.05
2022-08-06T22:15:02.771Z,16.00
2022-08-06T22:17:59.908Z,15.97
2022-08-06T22:20:21.546Z,15.92
2022-08-06T22:22:52.415Z,15.89
2022-08-06T22:25:24.872Z,15.86
2022-08-06T22:27:55.541Z,15.82
2022-08-06T22:30:37.553Z,15.78
2022-08-06T22:33:14.514Z,15.74
2022-08-06T22:35:57.510Z,15.70
2022-08-06T22:38:32.117Z,15.65
2022-08-06T22:41:00.812Z,15.61
2022-08-06T22:43:52.040Z,15.60
2022-08-06T22:46:17.379Z,15.57
2022-08-06T22:48:47.440Z,15.56
2022-08-06T22:51:19.308Z,15.54
2022-08-06T22:54:26.539Z,15.50
2022-08-06T22:57:04.923Z,15.45
2022-08-06T23:00:12.365Z,15.43
2022-08-06T23:02:20.355Z,15.41
2022-08-06T23:04:51.686Z,15.43
2022-08-06T23:07:21.424Z,15.42
2022-08-06T23:09:54.152Z,15.40
2022-08-06T23:12:31.749Z,15.39
2022-08-06T23:15:07.683Z,15.37
2022-08-06T23:17:56.574Z,15.34
2022-08-06T23:20:32.824Z,15.35
2022-08-06T23:23:03.147Z,15.34
2022-08-06T23:25:59.931Z,15.35
2022-08-06T23:28:22.830Z,15.32
2022-08-06T23:30:52.099Z,15.31
2022-08-06T23:33:19.910Z,15.30
2022-08-06T23:35:49.117Z,15.32
2022-08-06T23:38:33.906Z,15.31
2022-08-06T23:41:02.433Z,15.29
2022-08-06T23:43:44.166Z,15.26
2022-08-06T23:46:11.999Z,15.25
2022-08-06T23:48:45.154Z,15.23
2022-08-06T23:52:01.027Z,15.19
2022-08-06T23:54:23.206Z,15.15
2022-08-06T23:56:57.484Z,15.13
2022-08-06T23:59:44.442Z,15.11
